Tropical Cyclones
[Index]
Main Index Home Page Stock Weather Photos Extreme Storms Discussion Storm News and Storm Chasing Reports Tropical Cyclones / Hurricanes / Typhoons Weather Data and Links Wild Fires / Bushfires Weather Observation Techniques Weather Picture Catalogue Tornado Pictures and Reports Stock Video Footage and DVDs for sale
Season 2012-2013 Tropical Cyclone ZANE Track Map
Season 2012-2013 Summaries (Operational Data): [AU] [SIO] [SPAC] [SH]
<<- Previous TC | 2012-2013 Season | Next TC ->>

click for intensity scale information  Lat/long Grid: Show Hide

 Date Labels: Show Hide

Operational Tropical Cyclone Data : JTWC Advisories

Name: ZANE
Number: 1323

24 Apr 2013 18:00 UTC to 02 May 2013 12:00 UTC

    date/time    lat    long     hPa   cat  kts
2013-04-24 18    8.3   156.9    1010         15          
2013-04-25 00    8.4   156.2    1010         15          
2013-04-25 06    8.5   155.6    1007         20          
2013-04-25 12    8.7   155.0    1004         25          
2013-04-25 18    8.9   154.4    1004         25          
2013-04-26 00    9.1   153.9    1004         25          
2013-04-26 06    9.4   153.9    1004         25          
2013-04-26 12   10.1   154.5    1004         25          
2013-04-26 18   10.4   154.9    1004         25          
2013-04-27 00   10.7   155.1    1004         25          
2013-04-27 06   11.0   155.2    1004         25          
2013-04-27 12   11.4   155.1    1004         25          
2013-04-27 18   11.8   154.9    1004         25          
2013-04-28 00   12.1   154.7    1004         25          
2013-04-28 06   12.4   154.3    1004         25          
2013-04-28 12   12.6   153.8    1004         25          
2013-04-28 18   12.6   153.6    1000         30          
2013-04-29 00   12.6   153.4    1000         30          
2013-04-29 06   12.8   152.9    1000         30          
2013-04-29 12   13.2   152.2    1000         30          
2013-04-29 18   13.6   151.1     996    1    35          
2013-04-30 00   13.8   150.3     989    1    45          
2013-04-30 06   14.1   149.5     978    2    60          
2013-04-30 12   14.1   148.8     974    3    65          
2013-04-30 18   14.1   148.2     978    2    60          
2013-05-01 00   13.9   147.5     978    2    60          
2013-05-01 06   13.6   146.6     982    2    55          
2013-05-01 12   13.2   145.3     989    1    45          
2013-05-01 18   12.5   144.5     996    1    35          
2013-05-02 00   11.7   143.0    1000         30          
2013-05-02 06   11.2   142.0    1000         30          
2013-05-02 12   10.9   139.2    1004         25          
Winds are 10-min average.

Tropical cyclone tracks developed by Michael Bath using operational warnings and advisories and Google Maps.


[Australian Severe Weather index] [Copyright Notice] [Email Contacts] [Search This Site] [Privacy Policy]
Document: tropical_cyclone_zane.htm Updated: 2 May 2017